sensor_id;sensor_type;location;lat;lon;timestamp;pressure;altitude;pressure_sealevel;temperature;humidity
74242;BME280;62599;49.146;10.426;2023-07-22T00:00:28;95710.16;;;11.68;100.00
74242;BME280;62599;49.146;10.426;2023-07-22T00:02:54;95704.22;;;11.62;100.00
74242;BME280;62599;49.146;10.426;2023-07-22T00:05:19;95698.25;;;11.56;100.00
74242;BME280;62599;49.146;10.426;2023-07-22T00:07:51;95701.63;;;11.53;100.00
74242;BME280;62599;49.146;10.426;2023-07-22T00:10:16;95710.50;;;11.54;100.00
74242;BME280;62599;49.146;10.426;2023-07-22T00:12:42;95709.03;;;11.56;100.00
74242;BME280;62599;49.146;10.426;2023-07-22T00:15:08;95709.81;;;11.57;100.00
74242;BME280;62599;49.146;10.426;2023-07-22T00:17:33;95715.22;;;11.57;100.00
74242;BME280;62599;49.146;10.426;2023-07-22T00:19:59;95707.59;;;11.59;100.00
74242;BME280;62599;49.146;10.426;2023-07-22T00:22:25;95713.41;;;11.61;100.00
74242;BME280;62599;49.146;10.426;2023-07-22T00:24:52;95707.59;;;11.59;100.00
74242;BME280;62599;49.146;10.426;2023-07-22T00:27:17;95711.72;;;11.56;100.00
74242;BME280;62599;49.146;10.426;2023-07-22T00:29:42;95708.91;;;11.53;100.00
74242;BME280;62599;49.146;10.426;2023-07-22T00:32:08;95701.84;;;11.48;100.00
74242;BME280;62599;49.146;10.426;2023-07-22T00:34:34;95710.25;;;11.47;100.00
74242;BME280;62599;49.146;10.426;2023-07-22T00:36:59;95710.25;;;11.47;100.00
74242;BME280;62599;49.146;10.426;2023-07-22T00:39:25;95716.78;;;11.46;100.00
74242;BME280;62599;49.146;10.426;2023-07-22T00:41:50;95714.56;;;11.48;100.00
74242;BME280;62599;49.146;10.426;2023-07-22T00:44:15;95708.34;;;11.47;100.00
74242;BME280;62599;49.146;10.426;2023-07-22T00:46:41;95704.53;;;11.48;100.00
74242;BME280;62599;49.146;10.426;2023-07-22T00:49:10;95705.66;;;11.47;100.00
74242;BME280;62599;49.146;10.426;2023-07-22T00:51:35;95707.13;;;11.45;100.00
74242;BME280;62599;49.146;10.426;2023-07-22T00:54:00;95701.25;;;11.43;100.00
74242;BME280;62599;49.146;10.426;2023-07-22T00:56:26;95703.97;;;11.43;100.00
74242;BME280;62599;49.146;10.426;2023-07-22T00:58:52;95702.16;;;11.47;100.00
74242;BME280;62599;49.146;10.426;2023-07-22T01:01:17;95703.28;;;11.46;100.00
74242;BME280;62599;49.146;10.426;2023-07-22T01:03:43;95700.16;;;11.44;100.00
74242;BME280;62599;49.146;10.426;2023-07-22T01:06:09;95691.97;;;11.40;100.00
74242;BME280;62599;49.146;10.426;2023-07-22T01:08:35;95700.84;;;11.41;100.00
74242;BME280;62599;49.146;10.426;2023-07-22T01:11:00;95697.66;;;11.39;100.00
74242;BME280;62599;49.146;10.426;2023-07-22T01:13:25;95696.88;;;11.38;100.00
74242;BME280;62599;49.146;10.426;2023-07-22T01:15:51;95697.56;;;11.35;100.00
74242;BME280;62599;49.146;10.426;2023-07-22T01:18:17;95697.44;;;11.31;100.00
74242;BME280;62599;49.146;10.426;2023-07-22T01:20:43;95702.41;;;11.29;100.00
74242;BME280;62599;49.146;10.426;2023-07-22T01:23:09;95706.19;;;11.28;100.00
74242;BME280;62599;49.146;10.426;2023-07-22T01:25:34;95696.53;;;11.27;100.00
74242;BME280;62599;49.146;10.426;2023-07-22T01:28:00;95701.47;;;11.25;100.00
74242;BME280;62599;49.146;10.426;2023-07-22T01:30:25;95700.25;;;11.23;100.00
74242;BME280;62599;49.146;10.426;2023-07-22T01:32:52;95699.13;;;11.24;100.00
74242;BME280;62599;49.146;10.426;2023-07-22T01:35:18;95689.00;;;11.21;100.00
74242;BME280;62599;49.146;10.426;2023-07-22T01:37:44;95696.31;;;11.20;100.00
74242;BME280;62599;49.146;10.426;2023-07-22T01:40:10;95683.94;;;11.19;100.00
74242;BME280;62599;49.146;10.426;2023-07-22T01:42:41;95690.13;;;11.20;100.00
74242;BME280;62599;49.146;10.426;2023-07-22T01:45:08;95689.34;;;11.19;100.00
74242;BME280;62599;49.146;10.426;2023-07-22T01:47:34;95684.72;;;11.20;100.00
74242;BME280;62599;49.146;10.426;2023-07-22T01:50:00;95693.25;;;11.22;100.00
74242;BME280;62599;49.146;10.426;2023-07-22T01:52:26;95682.16;;;11.23;100.00
74242;BME280;62599;49.146;10.426;2023-07-22T01:54:51;95679.78;;;11.22;100.00
74242;BME280;62599;49.146;10.426;2023-07-22T01:57:17;95685.53;;;11.20;100.00
74242;BME280;62599;49.146;10.426;2023-07-22T01:59:42;95678.56;;;11.19;100.00
74242;BME280;62599;49.146;10.426;2023-07-22T02:02:07;95682.34;;;11.18;100.00
74242;BME280;62599;49.146;10.426;2023-07-22T02:04:33;95684.63;;;11.16;100.00
74242;BME280;62599;49.146;10.426;2023-07-22T02:06:58;95692.25;;;11.14;100.00
74242;BME280;62599;49.146;10.426;2023-07-22T02:09:23;95688.97;;;11.08;100.00
74242;BME280;62599;49.146;10.426;2023-07-22T02:11:49;95682.81;;;11.08;100.00
74242;BME280;62599;49.146;10.426;2023-07-22T02:14:14;95688.19;;;11.08;100.00
74242;BME280;62599;49.146;10.426;2023-07-22T02:16:39;95685.81;;;11.06;100.00
74242;BME280;62599;49.146;10.426;2023-07-22T02:19:05;95692.00;;;11.07;100.00
74242;BME280;62599;49.146;10.426;2023-07-22T02:21:30;95688.09;;;11.04;100.00
74242;BME280;62599;49.146;10.426;2023-07-22T02:23:55;95687.63;;;11.02;100.00
74242;BME280;62599;49.146;10.426;2023-07-22T02:26:21;95696.38;;;10.99;100.00
74242;BME280;62599;49.146;10.426;2023-07-22T02:28:47;95697.84;;;10.97;100.00
74242;BME280;62599;49.146;10.426;2023-07-22T02:31:13;95694.69;;;10.95;100.00
74242;BME280;62599;49.146;10.426;2023-07-22T02:33:38;95695.16;;;10.97;100.00
74242;BME280;62599;49.146;10.426;2023-07-22T02:36:04;95691.31;;;10.98;100.00
74242;BME280;62599;49.146;10.426;2023-07-22T02:38:29;95690.53;;;10.97;100.00
74242;BME280;62599;49.146;10.426;2023-07-22T02:40:55;95694.03;;;10.98;100.00
74242;BME280;62599;49.146;10.426;2023-07-22T02:43:20;95698.75;;;11.01;100.00
74242;BME280;62599;49.146;10.426;2023-07-22T02:45:46;95701.44;;;11.01;100.00
74242;BME280;62599;49.146;10.426;2023-07-22T02:48:11;95698.28;;;10.99;100.00
74242;BME280;62599;49.146;10.426;2023-07-22T02:50:36;95694.03;;;10.98;100.00
74242;BME280;62599;49.146;10.426;2023-07-22T02:53:02;95691.63;;;10.96;100.00
74242;BME280;62599;49.146;10.426;2023-07-22T02:55:27;95697.38;;;10.95;100.00
74242;BME280;62599;49.146;10.426;2023-07-22T02:57:53;95706.59;;;10.94;100.00
74242;BME280;62599;49.146;10.426;2023-07-22T03:00:19;95704.56;;;10.91;100.00
74242;BME280;62599;49.146;10.426;2023-07-22T03:02:52;95701.38;;;10.89;100.00
74242;BME280;62599;49.146;10.426;2023-07-22T03:05:18;95702.97;;;10.90;100.00
74242;BME280;62599;49.146;10.426;2023-07-22T03:07:43;95699.03;;;10.87;100.00
74242;BME280;62599;49.146;10.426;2023-07-22T03:10:09;95697.47;;;10.86;100.00
74242;BME280;62599;49.146;10.426;2023-07-22T03:12:35;95706.22;;;10.83;100.00
74242;BME280;62599;49.146;10.426;2023-07-22T03:15:01;95708.44;;;10.81;100.00
74242;BME280;62599;49.146;10.426;2023-07-22T03:17:29;95714.97;;;10.80;100.00
74242;BME280;62599;49.146;10.426;2023-07-22T03:19:55;95718.00;;;10.78;100.00
74242;BME280;62599;49.146;10.426;2023-07-22T03:22:20;95726.25;;;10.73;100.00
74242;BME280;62599;49.146;10.426;2023-07-22T03:24:45;95720.44;;;10.71;100.00
74242;BME280;62599;49.146;10.426;2023-07-22T03:27:11;95715.25;;;10.66;100.00
74242;BME280;62599;49.146;10.426;2023-07-22T03:29:37;95721.28;;;10.63;100.00
74242;BME280;62599;49.146;10.426;2023-07-22T03:32:03;95717.69;;;10.59;100.00
74242;BME280;62599;49.146;10.426;2023-07-22T03:34:29;95709.94;;;10.57;100.00
74242;BME280;62599;49.146;10.426;2023-07-22T03:36:54;95714.31;;;10.62;100.00
74242;BME280;62599;49.146;10.426;2023-07-22T03:39:20;95717.50;;;10.64;100.00
74242;BME280;62599;49.146;10.426;2023-07-22T03:41:45;95720.19;;;10.64;100.00
74242;BME280;62599;49.146;10.426;2023-07-22T03:44:11;95716.38;;;10.65;100.00
74242;BME280;62599;49.146;10.426;2023-07-22T03:46:37;95725.34;;;10.69;100.00
74242;BME280;62599;49.146;10.426;2023-07-22T03:49:02;95719.19;;;10.69;100.00
74242;BME280;62599;49.146;10.426;2023-07-22T03:51:28;95729.63;;;10.70;100.00
74242;BME280;62599;49.146;10.426;2023-07-22T03:53:53;95720.56;;;10.75;100.00
74242;BME280;62599;49.146;10.426;2023-07-22T03:56:20;95722.81;;;10.85;100.00
74242;BME280;62599;49.146;10.426;2023-07-22T03:58:45;95723.72;;;10.89;100.00
74242;BME280;62599;49.146;10.426;2023-07-22T04:01:13;95724.09;;;11.00;100.00
74242;BME280;62599;49.146;10.426;2023-07-22T04:03:38;95731.78;;;11.10;100.00
74242;BME280;62599;49.146;10.426;2023-07-22T04:06:03;95724.50;;;11.23;100.00
74242;BME280;62599;49.146;10.426;2023-07-22T04:08:29;95728.34;;;11.34;100.00
74242;BME280;62599;49.146;10.426;2023-07-22T04:10:55;95719.38;;;11.42;100.00
74242;BME280;62599;49.146;10.426;2023-07-22T04:13:22;95719.47;;;11.46;100.00
74242;BME280;62599;49.146;10.426;2023-07-22T04:15:48;95719.94;;;11.48;100.00
74242;BME280;62599;49.146;10.426;2023-07-22T04:18:18;95728.03;;;11.48;100.00
74242;BME280;62599;49.146;10.426;2023-07-22T04:20:44;95720.38;;;11.50;100.00
74242;BME280;62599;49.146;10.426;2023-07-22T04:23:10;95720.50;;;11.53;100.00
74242;BME280;62599;49.146;10.426;2023-07-22T04:25:42;95721.63;;;11.52;100.00
74242;BME280;62599;49.146;10.426;2023-07-22T04:28:08;95723.97;;;11.54;100.00
74242;BME280;62599;49.146;10.426;2023-07-22T04:30:34;95722.88;;;11.55;100.00
74242;BME280;62599;49.146;10.426;2023-07-22T04:33:00;95723.78;;;11.59;100.00
74242;BME280;62599;49.146;10.426;2023-07-22T04:35:25;95726.78;;;11.57;100.00
74242;BME280;62599;49.146;10.426;2023-07-22T04:37:51;95720.72;;;11.61;100.00
74242;BME280;62599;49.146;10.426;2023-07-22T04:40:16;95714.00;;;11.67;100.00
74242;BME280;62599;49.146;10.426;2023-07-22T04:42:44;95723.88;;;11.75;100.00
74242;BME280;62599;49.146;10.426;2023-07-22T04:45:10;95720.19;;;11.92;100.00
74242;BME280;62599;49.146;10.426;2023-07-22T04:47:36;95726.47;;;12.20;100.00
74242;BME280;62599;49.146;10.426;2023-07-22T04:50:02;95727.53;;;12.44;100.00
74242;BME280;62599;49.146;10.426;2023-07-22T04:52:29;95719.38;;;12.56;100.00
74242;BME280;62599;49.146;10.426;2023-07-22T04:54:54;95717.91;;;12.59;100.00
74242;BME280;62599;49.146;10.426;2023-07-22T04:57:20;95724.34;;;12.54;100.00
74242;BME280;62599;49.146;10.426;2023-07-22T04:59:46;95730.88;;;12.53;100.00
74242;BME280;62599;49.146;10.426;2023-07-22T05:02:12;95725.13;;;12.55;100.00
74242;BME280;62599;49.146;10.426;2023-07-22T05:04:37;95727.16;;;12.58;100.00
74242;BME280;62599;49.146;10.426;2023-07-22T05:07:03;95728.81;;;12.62;100.00
74242;BME280;62599;49.146;10.426;2023-07-22T05:09:28;95728.59;;;12.67;100.00
74242;BME280;62599;49.146;10.426;2023-07-22T05:11:53;95718.75;;;12.75;100.00
74242;BME280;62599;49.146;10.426;2023-07-22T05:14:19;95721.41;;;12.87;100.00
74242;BME280;62599;49.146;10.426;2023-07-22T05:16:45;95729.81;;;12.98;100.00
74242;BME280;62599;49.146;10.426;2023-07-22T05:19:10;95736.19;;;13.06;100.00
74242;BME280;62599;49.146;10.426;2023-07-22T05:21:36;95735.59;;;13.12;100.00
74242;BME280;62599;49.146;10.426;2023-07-22T05:24:02;95734.53;;;13.17;100.00
74242;BME280;62599;49.146;10.426;2023-07-22T05:26:27;95736.22;;;13.21;100.00
74242;BME280;62599;49.146;10.426;2023-07-22T05:28:52;95729.81;;;13.26;100.00
74242;BME280;62599;49.146;10.426;2023-07-22T05:31:18;95729.44;;;13.28;100.00
74242;BME280;62599;49.146;10.426;2023-07-22T05:33:43;95728.06;;;13.34;100.00
74242;BME280;62599;49.146;10.426;2023-07-22T05:36:08;95730.19;;;13.40;100.00
74242;BME280;62599;49.146;10.426;2023-07-22T05:38:34;95734.81;;;13.40;100.00
74242;BME280;62599;49.146;10.426;2023-07-22T05:40:59;95732.88;;;13.40;100.00
74242;BME280;62599;49.146;10.426;2023-07-22T05:43:24;95746.03;;;13.42;100.00
74242;BME280;62599;49.146;10.426;2023-07-22T05:45:50;95753.91;;;13.47;100.00
74242;BME280;62599;49.146;10.426;2023-07-22T05:48:15;95758.63;;;13.50;100.00
74242;BME280;62599;49.146;10.426;2023-07-22T05:50:41;95754.16;;;13.58;100.00
74242;BME280;62599;49.146;10.426;2023-07-22T05:53:06;95755.16;;;13.65;100.00
74242;BME280;62599;49.146;10.426;2023-07-22T05:55:32;95769.38;;;13.78;100.00
74242;BME280;62599;49.146;10.426;2023-07-22T05:57:57;95770.16;;;13.94;100.00
74242;BME280;62599;49.146;10.426;2023-07-22T06:00:23;95780.13;;;14.06;100.00
74242;BME280;62599;49.146;10.426;2023-07-22T06:02:48;95775.44;;;14.23;100.00
74242;BME280;62599;49.146;10.426;2023-07-22T06:05:14;95778.41;;;14.33;100.00
74242;BME280;62599;49.146;10.426;2023-07-22T06:07:39;95780.13;;;14.41;100.00
74242;BME280;62599;49.146;10.426;2023-07-22T06:10:05;95775.03;;;14.56;100.00
74242;BME280;62599;49.146;10.426;2023-07-22T06:12:31;95776.94;;;14.71;100.00
74242;BME280;62599;49.146;10.426;2023-07-22T06:14:56;95777.50;;;14.80;100.00
74242;BME280;62599;49.146;10.426;2023-07-22T06:17:22;95784.94;;;14.83;100.00
74242;BME280;62599;49.146;10.426;2023-07-22T06:19:48;95779.28;;;14.92;100.00
74242;BME280;62599;49.146;10.426;2023-07-22T06:22:13;95779.50;;;15.03;99.96
74242;BME280;62599;49.146;10.426;2023-07-22T06:24:38;95787.59;;;15.19;98.78
74242;BME280;62599;49.146;10.426;2023-07-22T06:27:04;95786.88;;;15.22;95.14
74242;BME280;62599;49.146;10.426;2023-07-22T06:29:29;95784.00;;;15.34;94.33
74242;BME280;62599;49.146;10.426;2023-07-22T06:31:55;95790.25;;;15.38;93.48
74242;BME280;62599;49.146;10.426;2023-07-22T06:34:20;95786.00;;;15.37;94.39
74242;BME280;62599;49.146;10.426;2023-07-22T06:36:45;95793.41;;;15.40;94.27
74242;BME280;62599;49.146;10.426;2023-07-22T06:39:11;95793.88;;;15.46;93.55
74242;BME280;62599;49.146;10.426;2023-07-22T06:41:36;95784.72;;;15.54;94.68
74242;BME280;62599;49.146;10.426;2023-07-22T06:44:01;95787.22;;;15.62;93.70
74242;BME280;62599;49.146;10.426;2023-07-22T06:46:27;95779.94;;;15.67;93.63
74242;BME280;62599;49.146;10.426;2023-07-22T06:48:52;95787.50;;;15.77;93.18
74242;BME280;62599;49.146;10.426;2023-07-22T06:51:17;95792.75;;;15.89;92.59
74242;BME280;62599;49.146;10.426;2023-07-22T06:53:43;95791.34;;;15.99;90.43
74242;BME280;62599;49.146;10.426;2023-07-22T06:56:08;95793.53;;;16.12;90.16
74242;BME280;62599;49.146;10.426;2023-07-22T06:58:33;95799.75;;;16.13;88.76
74242;BME280;62599;49.146;10.426;2023-07-22T07:00:59;95799.13;;;16.23;89.89
74242;BME280;62599;49.146;10.426;2023-07-22T07:03:24;95801.59;;;16.32;89.36
74242;BME280;62599;49.146;10.426;2023-07-22T07:05:56;95800.13;;;16.38;88.52
74242;BME280;62599;49.146;10.426;2023-07-22T07:08:23;95808.50;;;16.52;88.15
74242;BME280;62599;49.146;10.426;2023-07-22T07:10:49;95795.84;;;16.64;87.64
74242;BME280;62599;49.146;10.426;2023-07-22T07:13:15;95802.16;;;16.71;87.66
74242;BME280;62599;49.146;10.426;2023-07-22T07:15:40;95805.44;;;16.84;86.81
74242;BME280;62599;49.146;10.426;2023-07-22T07:18:05;95811.03;;;16.95;85.83
74242;BME280;62599;49.146;10.426;2023-07-22T07:20:31;95812.81;;;17.14;86.19
74242;BME280;62599;49.146;10.426;2023-07-22T07:22:56;95806.38;;;17.25;83.77
74242;BME280;62599;49.146;10.426;2023-07-22T07:25:22;95813.44;;;17.33;82.74
74242;BME280;62599;49.146;10.426;2023-07-22T07:27:47;95810.78;;;17.37;82.19
74242;BME280;62599;49.146;10.426;2023-07-22T07:30:13;95805.72;;;17.39;80.82
74242;BME280;62599;49.146;10.426;2023-07-22T07:32:38;95814.81;;;17.50;80.83
74242;BME280;62599;49.146;10.426;2023-07-22T07:35:04;95814.03;;;17.53;78.83
74242;BME280;62599;49.146;10.426;2023-07-22T07:37:32;95814.25;;;17.75;79.75
74242;BME280;62599;49.146;10.426;2023-07-22T07:39:58;95818.41;;;17.95;78.19
74242;BME280;62599;49.146;10.426;2023-07-22T07:42:30;95826.41;;;18.22;77.04
74242;BME280;62599;49.146;10.426;2023-07-22T07:44:56;95822.59;;;18.30;76.01
74242;BME280;62599;49.146;10.426;2023-07-22T07:47:21;95819.16;;;18.44;75.84
74242;BME280;62599;49.146;10.426;2023-07-22T07:49:47;95816.56;;;18.62;74.82
74242;BME280;62599;49.146;10.426;2023-07-22T07:52:12;95811.91;;;18.66;74.38
74242;BME280;62599;49.146;10.426;2023-07-22T07:54:37;95818.06;;;18.52;74.53
74242;BME280;62599;49.146;10.426;2023-07-22T07:57:03;95819.25;;;18.55;74.52
74242;BME280;62599;49.146;10.426;2023-07-22T07:59:28;95813.50;;;18.67;73.92
74242;BME280;62599;49.146;10.426;2023-07-22T08:01:54;95826.34;;;18.70;73.99
74242;BME280;62599;49.146;10.426;2023-07-22T08:04:23;95819.06;;;18.81;71.85
74242;BME280;62599;49.146;10.426;2023-07-22T08:06:49;95822.16;;;18.80;72.82
74242;BME280;62599;49.146;10.426;2023-07-22T08:09:14;95822.56;;;18.78;71.97
74242;BME280;62599;49.146;10.426;2023-07-22T08:11:44;95824.19;;;18.90;71.76
74242;BME280;62599;49.146;10.426;2023-07-22T08:14:10;95822.34;;;19.12;71.71
74242;BME280;62599;49.146;10.426;2023-07-22T08:16:36;95813.03;;;19.27;71.11
74242;BME280;62599;49.146;10.426;2023-07-22T08:19:01;95812.31;;;19.41;68.76
74242;BME280;62599;49.146;10.426;2023-07-22T08:21:26;95815.09;;;19.59;68.93
74242;BME280;62599;49.146;10.426;2023-07-22T08:23:52;95816.72;;;19.74;68.14
74242;BME280;62599;49.146;10.426;2023-07-22T08:26:17;95811.25;;;19.78;67.05
74242;BME280;62599;49.146;10.426;2023-07-22T08:28:46;95809.31;;;20.00;66.50
74242;BME280;62599;49.146;10.426;2023-07-22T08:31:12;95809.75;;;20.05;65.52
74242;BME280;62599;49.146;10.426;2023-07-22T08:33:37;95806.22;;;20.19;65.11
74242;BME280;62599;49.146;10.426;2023-07-22T08:36:02;95806.22;;;20.19;63.01
74242;BME280;62599;49.146;10.426;2023-07-22T08:38:28;95803.81;;;19.75;63.25
74242;BME280;62599;49.146;10.426;2023-07-22T08:40:53;95798.75;;;19.73;64.15
74242;BME280;62599;49.146;10.426;2023-07-22T08:43:22;95796.38;;;19.68;64.01
74242;BME280;62599;49.146;10.426;2023-07-22T08:45:49;95806.47;;;19.53;64.55
74242;BME280;62599;49.146;10.426;2023-07-22T08:48:17;95803.34;;;19.47;65.38
74242;BME280;62599;49.146;10.426;2023-07-22T08:50:49;95802.94;;;19.45;64.90
74242;BME280;62599;49.146;10.426;2023-07-22T08:53:15;95794.34;;;19.36;65.06
74242;BME280;62599;49.146;10.426;2023-07-22T08:55:41;95800.19;;;19.38;65.20
74242;BME280;62599;49.146;10.426;2023-07-22T08:58:10;95799.94;;;19.72;63.90
74242;BME280;62599;49.146;10.426;2023-07-22T09:00:37;95799.16;;;20.04;63.88
74242;BME280;62599;49.146;10.426;2023-07-22T09:03:03;95798.41;;;20.14;61.79
74242;BME280;62599;49.146;10.426;2023-07-22T09:05:31;95800.34;;;20.38;61.42
74242;BME280;62599;49.146;10.426;2023-07-22T09:07:57;95799.94;;;20.40;60.84
74242;BME280;62599;49.146;10.426;2023-07-22T09:10:24;95796.44;;;20.29;61.13
74242;BME280;62599;49.146;10.426;2023-07-22T09:12:52;95793.34;;;20.30;61.34
74242;BME280;62599;49.146;10.426;2023-07-22T09:15:18;95790.19;;;20.32;61.11
74242;BME280;62599;49.146;10.426;2023-07-22T09:17:44;95785.50;;;20.22;60.64
74242;BME280;62599;49.146;10.426;2023-07-22T09:20:11;95789.00;;;20.26;59.15
74242;BME280;62599;49.146;10.426;2023-07-22T09:22:43;95789.78;;;20.40;58.02
74242;BME280;62599;49.146;10.426;2023-07-22T09:25:19;95784.72;;;20.50;57.64
74242;BME280;62599;49.146;10.426;2023-07-22T09:27:47;95776.06;;;20.76;56.66
74242;BME280;62599;49.146;10.426;2023-07-22T09:30:35;95777.13;;;21.14;55.22
74242;BME280;62599;49.146;10.426;2023-07-22T09:33:06;95786.75;;;21.55;54.85
74242;BME280;62599;49.146;10.426;2023-07-22T09:35:44;95784.97;;;21.90;53.14
74242;BME280;62599;49.146;10.426;2023-07-22T09:38:10;95781.66;;;22.16;51.27
74242;BME280;62599;49.146;10.426;2023-07-22T09:40:35;95771.81;;;22.22;48.63
74242;BME280;62599;49.146;10.426;2023-07-22T09:43:01;95775.94;;;21.89;47.26
74242;BME280;62599;49.146;10.426;2023-07-22T09:45:29;95780.28;;;21.86;47.73
74242;BME280;62599;49.146;10.426;2023-07-22T09:47:55;95770.72;;;22.09;48.73
74242;BME280;62599;49.146;10.426;2023-07-22T09:50:25;95767.75;;;22.38;47.03
74242;BME280;62599;49.146;10.426;2023-07-22T09:52:55;95770.13;;;22.35;46.20
74242;BME280;62599;49.146;10.426;2023-07-22T09:55:23;95775.53;;;22.43;45.99
74242;BME280;62599;49.146;10.426;2023-07-22T09:57:53;95775.25;;;22.33;45.97
74242;BME280;62599;49.146;10.426;2023-07-22T10:00:20;95780.38;;;22.28;45.79
74242;BME280;62599;49.146;10.426;2023-07-22T10:02:47;95774.66;;;22.53;46.29
74242;BME280;62599;49.146;10.426;2023-07-22T10:05:19;95776.75;;;22.79;44.49
74242;BME280;62599;49.146;10.426;2023-07-22T10:07:52;95769.53;;;22.96;43.68
74242;BME280;62599;49.146;10.426;2023-07-22T10:10:26;95764.84;;;23.27;42.78
74242;BME280;62599;49.146;10.426;2023-07-22T10:12:53;95765.66;;;23.55;41.88
74242;BME280;62599;49.146;10.426;2023-07-22T10:15:19;95776.56;;;23.62;41.75
74242;BME280;62599;49.146;10.426;2023-07-22T10:17:45;95766.94;;;23.77;41.54
74242;BME280;62599;49.146;10.426;2023-07-22T10:20:13;95770.25;;;23.65;42.15
74242;BME280;62599;49.146;10.426;2023-07-22T10:22:45;95770.69;;;23.91;41.93
74242;BME280;62599;49.146;10.426;2023-07-22T10:25:14;95771.41;;;23.95;41.40
74242;BME280;62599;49.146;10.426;2023-07-22T10:27:40;95764.72;;;23.65;40.96
74242;BME280;62599;49.146;10.426;2023-07-22T10:30:10;95757.19;;;23.12;42.04
74242;BME280;62599;49.146;10.426;2023-07-22T10:32:46;95764.50;;;22.50;43.58
74242;BME280;62599;49.146;10.426;2023-07-22T10:35:22;95761.53;;;22.33;44.00
74242;BME280;62599;49.146;10.426;2023-07-22T10:37:49;95768.50;;;22.42;43.92
74242;BME280;62599;49.146;10.426;2023-07-22T10:40:26;95765.88;;;22.69;41.84
74242;BME280;62599;49.146;10.426;2023-07-22T10:43:05;95749.50;;;22.99;40.72
74242;BME280;62599;49.146;10.426;2023-07-22T10:45:40;95757.38;;;23.28;41.02
74242;BME280;62599;49.146;10.426;2023-07-22T10:48:07;95752.44;;;23.46;39.66
74242;BME280;62599;49.146;10.426;2023-07-22T10:53:04;95753.63;;;23.99;38.31
74242;BME280;62599;49.146;10.426;2023-07-22T10:55:29;95758.91;;;23.90;38.02
74242;BME280;62599;49.146;10.426;2023-07-22T10:57:55;95763.94;;;23.68;38.72
74242;BME280;62599;49.146;10.426;2023-07-22T11:00:21;95764.38;;;23.33;38.46
74242;BME280;62599;49.146;10.426;2023-07-22T11:03:08;95756.75;;;23.17;40.03
74242;BME280;62599;49.146;10.426;2023-07-22T11:05:49;95755.84;;;23.54;39.84
74242;BME280;62599;49.146;10.426;2023-07-22T11:08:15;95747.50;;;23.61;37.97
74242;BME280;62599;49.146;10.426;2023-07-22T11:10:54;95746.84;;;23.53;38.71
74242;BME280;62599;49.146;10.426;2023-07-22T11:13:29;95746.94;;;23.73;40.84
74242;BME280;62599;49.146;10.426;2023-07-22T11:15:58;95746.03;;;24.07;40.93
74242;BME280;62599;49.146;10.426;2023-07-22T11:18:39;95741.28;;;24.11;40.54
74242;BME280;62599;49.146;10.426;2023-07-22T11:21:12;95737.00;;;23.83;40.73
74242;BME280;62599;49.146;10.426;2023-07-22T11:23:37;95732.25;;;23.84;41.14
74242;BME280;62599;49.146;10.426;2023-07-22T11:26:03;95727.38;;;24.18;40.96
74242;BME280;62599;49.146;10.426;2023-07-22T11:28:30;95734.50;;;24.39;40.10
74242;BME280;62599;49.146;10.426;2023-07-22T11:30:55;95729.00;;;24.63;38.85
74242;BME280;62599;49.146;10.426;2023-07-22T11:33:21;95731.56;;;24.50;38.24
74242;BME280;62599;49.146;10.426;2023-07-22T11:35:46;95727.19;;;24.29;38.63
74242;BME280;62599;49.146;10.426;2023-07-22T11:38:12;95729.78;;;24.40;38.72
74242;BME280;62599;49.146;10.426;2023-07-22T11:40:38;95731.97;;;24.25;37.44
74242;BME280;62599;49.146;10.426;2023-07-22T11:43:04;95724.38;;;24.33;37.70
74242;BME280;62599;49.146;10.426;2023-07-22T11:45:30;95723.31;;;24.50;37.69
74242;BME280;62599;49.146;10.426;2023-07-22T11:47:55;95725.03;;;24.64;35.30
74242;BME280;62599;49.146;10.426;2023-07-22T11:50:33;95724.25;;;24.63;35.59
74242;BME280;62599;49.146;10.426;2023-07-22T11:52:58;95718.03;;;24.59;36.16
74242;BME280;62599;49.146;10.426;2023-07-22T11:55:24;95705.50;;;24.55;35.71
74242;BME280;62599;49.146;10.426;2023-07-22T11:57:53;95698.19;;;24.48;36.27
74242;BME280;62599;49.146;10.426;2023-07-22T12:00:19;95704.38;;;24.52;36.28
74242;BME280;62599;49.146;10.426;2023-07-22T12:02:45;95706.50;;;25.04;36.56
74242;BME280;62599;49.146;10.426;2023-07-22T12:05:10;95708.94;;;25.75;35.17
74242;BME280;62599;49.146;10.426;2023-07-22T12:07:37;95696.19;;;25.81;33.73
74242;BME280;62599;49.146;10.426;2023-07-22T12:10:05;95689.91;;;25.80;33.70
74242;BME280;62599;49.146;10.426;2023-07-22T12:12:35;95690.69;;;25.81;33.90
74242;BME280;62599;49.146;10.426;2023-07-22T12:15:09;95690.16;;;26.02;33.71
74242;BME280;62599;49.146;10.426;2023-07-22T12:17:55;95707.09;;;26.04;33.53
74242;BME280;62599;49.146;10.426;2023-07-22T12:20:28;95698.53;;;25.99;33.82
74242;BME280;62599;49.146;10.426;2023-07-22T12:22:54;95687.16;;;25.80;33.79
74242;BME280;62599;49.146;10.426;2023-07-22T12:25:20;95692.44;;;25.55;34.28
74242;BME280;62599;49.146;10.426;2023-07-22T12:27:45;95683.22;;;25.61;34.70
74242;BME280;62599;49.146;10.426;2023-07-22T12:30:11;95683.22;;;25.61;34.34
74242;BME280;62599;49.146;10.426;2023-07-22T12:32:38;95685.78;;;25.36;34.21
74242;BME280;62599;49.146;10.426;2023-07-22T12:35:04;95682.97;;;25.19;34.39
74242;BME280;62599;49.146;10.426;2023-07-22T12:37:30;95679.56;;;25.32;34.26
74242;BME280;62599;49.146;10.426;2023-07-22T12:39:56;95680.69;;;25.34;34.49
74242;BME280;62599;49.146;10.426;2023-07-22T12:42:21;95677.34;;;25.43;34.56
74242;BME280;62599;49.146;10.426;2023-07-22T12:44:47;95672.84;;;25.33;34.32